createdAt,value
2017-04-11T00:00:44.240Z,17.38
2017-04-11T00:01:42.627Z,16.58
2017-04-11T00:02:41.416Z,17.33
2017-04-11T00:03:39.859Z,16.62
2017-04-11T00:04:38.254Z,17.93
2017-04-11T00:05:37.043Z,17.58
2017-04-11T00:06:36.247Z,18.08
2017-04-11T00:07:34.644Z,18.18
2017-04-11T00:08:33.789Z,17.93
2017-04-11T00:09:32.203Z,17.52
2017-04-11T00:10:31.419Z,16.93
2017-04-11T00:11:29.951Z,16.48
2017-04-11T00:12:33.851Z,18.62
2017-04-11T00:13:33.046Z,18.13
2017-04-11T00:14:32.191Z,18.00
2017-04-11T00:15:30.652Z,18.67
2017-04-11T00:16:29.514Z,17.85
2017-04-11T00:17:28.026Z,18.35
2017-04-11T00:18:26.489Z,16.92
2017-04-11T00:19:24.964Z,17.58
2017-04-11T00:20:23.398Z,18.70
2017-04-11T00:21:21.801Z,18.10
2017-04-11T00:22:21.210Z,18.58
2017-04-11T00:23:19.574Z,17.50
2017-04-11T00:24:17.998Z,17.90
2017-04-11T00:25:17.089Z,17.53
2017-04-11T00:26:15.517Z,17.98
2017-04-11T00:27:14.657Z,17.92
2017-04-11T00:28:13.031Z,18.78
2017-04-11T00:29:11.414Z,18.08
2017-04-11T00:30:09.821Z,18.08
2017-04-11T00:31:09.050Z,19.90
2017-04-11T00:32:07.485Z,18.67
2017-04-11T00:33:05.905Z,17.50
2017-04-11T00:34:04.315Z,18.15
2017-04-11T00:35:03.528Z,18.70
2017-04-11T00:36:01.911Z,17.58
2017-04-11T00:37:00.948Z,17.78
2017-04-11T00:38:00.169Z,18.70
2017-04-11T00:38:58.565Z,18.15
2017-04-11T00:39:56.952Z,18.42
2017-04-11T00:40:55.324Z,18.27
2017-04-11T00:41:53.749Z,17.23
2017-04-11T00:42:52.564Z,18.17
2017-04-11T00:43:50.964Z,16.20
2017-04-11T00:44:50.087Z,18.95
2017-04-11T00:45:48.470Z,18.48
2017-04-11T00:46:46.880Z,17.82
2017-04-11T00:47:45.964Z,17.30
2017-04-11T00:48:45.511Z,17.28
2017-04-11T00:49:43.940Z,16.68
2017-04-11T00:50:43.059Z,17.48
2017-04-11T00:51:41.503Z,18.57
2017-04-11T00:52:40.668Z,17.15
2017-04-11T00:53:40.432Z,16.73
2017-04-11T00:54:38.926Z,16.32
2017-04-11T00:55:37.355Z,18.08
2017-04-11T00:56:35.791Z,16.70
2017-04-11T00:57:34.919Z,17.30
2017-04-11T00:58:33.308Z,16.67
2017-04-11T00:59:31.678Z,16.72
2017-04-11T01:00:30.462Z,16.02
2017-04-11T01:01:28.933Z,17.53
2017-04-11T01:02:27.329Z,15.93
2017-04-11T01:03:26.462Z,17.13
2017-04-11T01:04:24.858Z,17.65
2017-04-11T01:05:23.290Z,16.40
2017-04-11T01:06:21.819Z,18.37
2017-04-11T01:07:20.956Z,18.28
2017-04-11T01:08:19.410Z,16.28
2017-04-11T01:09:17.822Z,18.10
2017-04-11T01:10:17.235Z,16.87
2017-04-11T01:11:15.719Z,16.92
2017-04-11T01:12:15.256Z,17.07
2017-04-11T01:13:13.626Z,15.50
2017-04-11T01:14:12.040Z,17.63
2017-04-11T01:15:10.411Z,17.67
2017-04-11T01:16:09.558Z,17.75
2017-04-11T01:17:07.980Z,16.85
2017-04-11T01:18:07.292Z,16.22
2017-04-11T01:19:05.731Z,17.57
2017-04-11T01:20:04.819Z,17.53
2017-04-11T01:21:04.302Z,18.35
2017-04-11T01:22:02.708Z,18.72
2017-04-11T01:23:01.109Z,17.70
2017-04-11T01:23:59.555Z,17.82
2017-04-11T01:24:58.010Z,17.48
2017-04-11T01:25:56.443Z,16.87
2017-04-11T01:26:54.794Z,17.67
2017-04-11T01:27:53.174Z,16.30
2017-04-11T01:28:51.573Z,17.90
2017-04-11T01:29:50.826Z,17.18
2017-04-11T01:30:49.201Z,17.38
2017-04-11T01:31:47.589Z,18.98
2017-04-11T01:32:46.723Z,17.33
2017-04-11T01:33:45.179Z,17.03
2017-04-11T01:34:45.831Z,17.78
2017-04-11T01:35:44.334Z,18.78
2017-04-11T01:36:42.787Z,17.30
2017-04-11T01:37:41.244Z,16.53
2017-04-11T01:38:39.991Z,17.55
2017-04-11T01:39:38.746Z,17.67
2017-04-11T01:40:37.913Z,17.92
2017-04-11T01:41:37.281Z,16.53
2017-04-11T01:42:35.736Z,17.13
2017-04-11T01:43:34.168Z,16.12
2017-04-11T01:44:33.968Z,16.45
2017-04-11T01:45:33.472Z,16.68
2017-04-11T01:46:31.872Z,17.43
2017-04-11T01:47:31.201Z,16.55
2017-04-11T01:48:29.574Z,17.70
2017-04-11T01:49:28.699Z,17.67
2017-04-11T01:50:27.681Z,16.75
2017-04-11T01:51:26.044Z,18.28
2017-04-11T01:52:24.454Z,16.97
2017-04-11T01:53:24.725Z,18.25
2017-04-11T01:54:23.135Z,19.77
2017-04-11T01:55:21.606Z,18.20
2017-04-11T01:56:19.982Z,18.82
2017-04-11T01:57:18.386Z,17.85
2017-04-11T01:58:17.531Z,18.70
2017-04-11T01:59:15.951Z,18.03
2017-04-11T02:00:14.801Z,17.77
2017-04-11T02:01:13.290Z,17.42
2017-04-11T02:02:14.558Z,17.88
2017-04-11T02:03:14.006Z,17.47
2017-04-11T02:04:12.403Z,18.83
2017-04-11T02:05:10.833Z,17.07
2017-04-11T02:06:09.214Z,18.88
2017-04-11T02:07:08.407Z,17.98
2017-04-11T02:08:07.539Z,17.60
2017-04-11T02:09:05.935Z,18.85
2017-04-11T02:10:04.381Z,17.88
2017-04-11T02:11:02.892Z,18.82
2017-04-11T02:12:01.341Z,20.30
2017-04-11T02:12:59.755Z,17.97
2017-04-11T02:13:58.916Z,18.78
2017-04-11T02:14:57.318Z,18.32
2017-04-11T02:15:55.709Z,18.73
2017-04-11T02:16:54.153Z,18.08
2017-04-11T02:17:52.600Z,16.90
2017-04-11T02:18:50.941Z,18.18
2017-04-11T02:19:49.346Z,17.28
2017-04-11T02:20:48.506Z,17.35
2017-04-11T02:21:47.615Z,18.82
2017-04-11T02:22:46.772Z,17.85
2017-04-11T02:23:45.201Z,18.97
2017-04-11T02:24:43.590Z,18.22
2017-04-11T02:25:41.958Z,18.28
2017-04-11T02:26:41.143Z,23.93
2017-04-11T02:27:40.050Z,33.62
2017-04-11T02:28:39.122Z,21.13
2017-04-11T02:29:38.239Z,18.88
2017-04-11T02:30:36.643Z,18.40
2017-04-11T02:31:35.077Z,18.25
2017-04-11T02:32:33.468Z,17.10
2017-04-11T02:33:32.726Z,16.67
2017-04-11T02:34:31.298Z,18.53
2017-04-11T02:35:29.683Z,18.40
2017-04-11T02:36:28.823Z,17.18
2017-04-11T02:37:27.339Z,16.33
2017-04-11T02:38:26.505Z,17.48
2017-04-11T02:39:25.660Z,16.80
2017-04-11T02:40:24.135Z,17.40
2017-04-11T02:41:22.571Z,19.75
2017-04-11T02:42:22.536Z,17.87
2017-04-11T02:43:21.665Z,17.27
2017-04-11T02:44:20.777Z,17.10
2017-04-11T02:45:20.144Z,18.78
2017-04-11T02:46:19.367Z,18.07
2017-04-11T02:47:17.722Z,17.88
2017-04-11T02:48:16.947Z,17.73
2017-04-11T02:49:15.349Z,18.00
2017-04-11T02:50:14.506Z,17.55
2017-04-11T02:51:12.897Z,16.93
2017-04-11T02:52:12.151Z,17.45
2017-04-11T02:53:10.547Z,17.22
2017-04-11T02:54:08.931Z,18.05
2017-04-11T02:55:08.097Z,18.18
2017-04-11T02:56:06.489Z,18.97
2017-04-11T02:57:08.195Z,16.98
2017-04-11T02:58:06.597Z,18.08
2017-04-11T02:59:05.729Z,16.98
2017-04-11T03:00:04.150Z,17.33
2017-04-11T03:01:03.297Z,18.02
2017-04-11T03:02:01.698Z,17.88
2017-04-11T03:03:00.090Z,19.02
2017-04-11T03:03:59.875Z,18.55
2017-04-11T03:04:59.038Z,18.08
2017-04-11T03:05:57.498Z,18.10
2017-04-11T03:06:55.879Z,17.85
2017-04-11T03:07:54.726Z,18.57
2017-04-11T03:08:54.392Z,17.78
2017-04-11T03:09:53.588Z,18.80
2017-04-11T03:10:51.957Z,18.17
2017-04-11T03:11:51.075Z,16.67
2017-04-11T03:12:49.486Z,16.58
2017-04-11T03:13:47.886Z,17.87
2017-04-11T03:14:46.285Z,18.33
2017-04-11T03:15:44.727Z,17.55
2017-04-11T03:16:44.126Z,17.03
2017-04-11T03:17:42.532Z,18.33
2017-04-11T03:18:41.233Z,17.45
2017-04-11T03:19:40.667Z,17.38
2017-04-11T03:20:39.063Z,17.22
2017-04-11T03:21:37.475Z,16.63
2017-04-11T03:22:36.629Z,16.15
2017-04-11T03:23:35.040Z,18.05
2017-04-11T03:24:34.160Z,16.85
2017-04-11T03:25:32.566Z,18.23
2017-04-11T03:26:30.938Z,16.53
2017-04-11T03:27:29.389Z,17.88
2017-04-11T03:28:27.812Z,16.95
2017-04-11T03:29:26.207Z,16.87
2017-04-11T03:30:24.621Z,15.03
2017-04-11T03:31:23.330Z,16.57
2017-04-11T03:32:21.740Z,17.50
2017-04-11T03:33:20.154Z,16.52
2017-04-11T03:34:19.301Z,15.45
2017-04-11T03:35:17.702Z,15.20
2017-04-11T03:36:16.869Z,16.45
2017-04-11T03:37:16.041Z,15.52
2017-04-11T03:38:14.422Z,15.30
2017-04-11T03:39:12.795Z,14.92
2017-04-11T03:40:12.030Z,15.85
2017-04-11T03:41:10.423Z,14.97
2017-04-11T03:42:08.869Z,14.90
2017-04-11T03:43:07.345Z,15.87
2017-04-11T03:44:05.745Z,14.83
2017-04-11T03:45:04.123Z,15.37
2017-04-11T03:46:03.863Z,15.85
2017-04-11T03:47:02.991Z,14.93
2017-04-11T03:48:02.115Z,14.85
2017-04-11T03:49:01.226Z,14.43
2017-04-11T03:49:59.606Z,14.58
2017-04-11T03:50:57.994Z,14.33
2017-04-11T03:51:56.412Z,14.40
2017-04-11T03:52:55.560Z,14.98
2017-04-11T03:53:54.738Z,14.65
2017-04-11T03:54:53.116Z,14.75
2017-04-11T03:55:51.535Z,13.08
2017-04-11T03:56:50.691Z,15.50
2017-04-11T03:57:49.111Z,15.57
2017-04-11T03:58:47.480Z,15.27
2017-04-11T03:59:45.842Z,14.75
2017-04-11T04:00:44.252Z,15.68
2017-04-11T04:01:42.630Z,14.40
2017-04-11T04:02:41.036Z,15.25
2017-04-11T04:03:40.522Z,13.12
2017-04-11T04:04:39.649Z,14.75
2017-04-11T04:05:38.038Z,15.95
2017-04-11T04:06:36.437Z,14.37
2017-04-11T04:07:34.807Z,14.92
2017-04-11T04:08:33.985Z,14.95
2017-04-11T04:09:34.720Z,14.48
2017-04-11T04:10:33.855Z,13.63
2017-04-11T04:11:32.257Z,14.68
2017-04-11T04:12:30.631Z,14.28
2017-04-11T04:13:29.013Z,14.37
2017-04-11T04:14:27.465Z,13.93
2017-04-11T04:15:25.895Z,15.30
2017-04-11T04:16:24.346Z,13.63
2017-04-11T04:17:22.727Z,15.48
2017-04-11T04:18:21.143Z,14.08
2017-04-11T04:19:19.529Z,14.42
2017-04-11T04:20:18.679Z,13.60
2017-04-11T04:21:17.117Z,14.47
2017-04-11T04:22:15.490Z,14.92
2017-04-11T04:23:13.907Z,13.55
2017-04-11T04:24:12.350Z,12.88
2017-04-11T04:25:10.744Z,14.62
2017-04-11T04:26:09.127Z,13.38
2017-04-11T04:27:08.262Z,17.52
2017-04-11T04:28:07.255Z,17.90
2017-04-11T04:29:05.667Z,18.82
2017-04-11T04:30:05.789Z,16.27
2017-04-11T04:31:04.979Z,15.72
2017-04-11T04:32:04.119Z,15.60
2017-04-11T04:33:02.521Z,16.15
2017-04-11T04:34:01.671Z,14.88
2017-04-11T04:35:00.103Z,13.43
2017-04-11T04:35:58.505Z,14.73
2017-04-11T04:36:58.630Z,14.77
2017-04-11T04:37:57.636Z,13.92
2017-04-11T04:38:56.810Z,13.85
2017-04-11T04:39:55.190Z,14.77
2017-04-11T04:40:54.351Z,14.88
2017-04-11T04:41:52.756Z,13.90
2017-04-11T04:42:51.903Z,13.87
2017-04-11T04:43:50.263Z,15.53
2017-04-11T04:44:48.648Z,14.28
2017-04-11T04:45:47.063Z,14.17
2017-04-11T04:46:45.771Z,14.80
2017-04-11T04:47:44.199Z,13.83
2017-04-11T04:48:43.331Z,14.88
2017-04-11T04:49:41.736Z,13.90
2017-04-11T04:50:41.323Z,14.87
2017-04-11T04:51:39.791Z,15.03
2017-04-11T04:52:38.363Z,15.35
2017-04-11T04:53:37.495Z,14.47
2017-04-11T04:54:35.851Z,14.98
2017-04-11T04:55:35.547Z,13.95
2017-04-11T04:56:34.720Z,14.67
2017-04-11T04:57:33.870Z,14.68
2017-04-11T04:58:32.235Z,14.97
2017-04-11T04:59:30.947Z,14.52
2017-04-11T05:00:29.367Z,14.50
2017-04-11T05:01:28.124Z,14.42
2017-04-11T05:02:26.575Z,14.93
2017-04-11T05:03:25.722Z,13.62
2017-04-11T05:04:24.121Z,15.23
2017-04-11T05:05:22.518Z,14.52
2017-04-11T05:06:21.000Z,14.87
2017-04-11T05:07:19.428Z,15.20
2017-04-11T05:08:17.866Z,13.82
2017-04-11T05:09:16.287Z,15.52
2017-04-11T05:10:15.447Z,15.05
2017-04-11T05:11:13.944Z,14.93
2017-04-11T05:12:13.107Z,14.07
2017-04-11T05:13:11.488Z,13.48
2017-04-11T05:14:09.896Z,14.10
2017-04-11T05:15:08.649Z,16.03
2017-04-11T05:16:07.072Z,15.65
2017-04-11T05:17:05.613Z,15.23
2017-04-11T05:18:04.003Z,13.85
2017-04-11T05:19:02.435Z,15.23
2017-04-11T05:20:00.871Z,14.57
2017-04-11T05:20:59.295Z,15.25
2017-04-11T05:21:57.690Z,14.20
2017-04-11T05:22:56.101Z,14.55
2017-04-11T05:23:55.246Z,13.75
2017-04-11T05:24:53.804Z,15.67
2017-04-11T05:25:52.255Z,15.45
2017-04-11T05:26:50.656Z,13.90
2017-04-11T05:27:49.045Z,14.83
2017-04-11T05:28:47.432Z,14.07
2017-04-11T05:29:46.576Z,14.50
2017-04-11T05:30:45.048Z,15.23
2017-04-11T05:31:43.446Z,14.85
2017-04-11T05:32:41.979Z,13.50
2017-04-11T05:33:40.445Z,12.58
2017-04-11T05:34:38.866Z,13.37
2017-04-11T05:35:38.422Z,11.93
2017-04-11T05:36:36.832Z,12.70
2017-04-11T05:37:35.196Z,12.75
2017-04-11T05:38:33.586Z,13.08
2017-04-11T05:39:32.831Z,12.05
2017-04-11T05:40:31.187Z,12.83
2017-04-11T05:41:29.567Z,12.08
2017-04-11T05:42:28.031Z,11.83
2017-04-11T05:43:26.457Z,12.37
2017-04-11T05:44:24.853Z,12.13
2017-04-11T05:45:23.223Z,13.17
2017-04-11T05:46:21.635Z,11.53
2017-04-11T05:47:20.101Z,12.02
2017-04-11T05:48:18.620Z,12.80
2017-04-11T05:49:17.055Z,12.20
2017-04-11T05:50:15.432Z,12.48
2017-04-11T05:51:14.549Z,11.80
2017-04-11T05:52:13.010Z,12.95
2017-04-11T05:53:11.447Z,12.25
2017-04-11T05:54:10.621Z,12.58
2017-04-11T05:55:09.086Z,12.47
2017-04-11T05:56:07.597Z,12.23
2017-04-11T05:57:06.736Z,12.05
2017-04-11T05:58:05.122Z,13.42
2017-04-11T05:59:03.517Z,11.93
2017-04-11T06:00:02.655Z,12.93
2017-04-11T06:01:01.413Z,12.38
2017-04-11T06:01:59.888Z,12.83
2017-04-11T06:02:58.248Z,11.93
2017-04-11T06:03:56.654Z,13.23
2017-04-11T06:04:55.377Z,12.02
2017-04-11T06:05:53.787Z,12.87
2017-04-11T06:06:52.279Z,12.15
2017-04-11T06:07:53.458Z,11.88
2017-04-11T06:08:51.897Z,11.47
2017-04-11T06:09:52.840Z,11.52
2017-04-11T06:10:51.229Z,13.10
2017-04-11T06:11:49.612Z,11.75
2017-04-11T06:12:48.503Z,11.87
2017-04-11T06:13:46.951Z,11.27
2017-04-11T06:14:45.379Z,12.80
2017-04-11T06:15:44.515Z,11.28
2017-04-11T06:16:42.913Z,10.97
2017-04-11T06:17:41.924Z,11.60
2017-04-11T06:18:41.075Z,11.08
2017-04-11T06:19:39.497Z,11.95
2017-04-11T06:20:37.971Z,12.12
2017-04-11T06:21:36.390Z,11.33
2017-04-11T06:22:34.846Z,11.20
2017-04-11T06:23:33.220Z,11.37
2017-04-11T06:24:31.674Z,11.13
2017-04-11T06:25:30.068Z,10.75
2017-04-11T06:26:28.506Z,11.08
2017-04-11T06:27:26.908Z,9.67
2017-04-11T06:28:25.291Z,10.05
2017-04-11T06:29:24.254Z,10.37
2017-04-11T06:30:22.633Z,10.13
2017-04-11T06:31:21.025Z,10.88
2017-04-11T06:32:20.188Z,9.98
2017-04-11T06:33:18.610Z,9.85
2017-04-11T06:34:16.988Z,10.12
2017-04-11T06:35:15.443Z,10.75
2017-04-11T06:36:14.681Z,10.70
2017-04-11T06:37:13.101Z,9.62
2017-04-11T06:38:11.558Z,10.90
2017-04-11T06:39:10.680Z,9.52
2017-04-11T06:40:09.143Z,10.60
2017-04-11T06:41:07.548Z,11.05
2017-04-11T06:42:05.934Z,10.73
2017-04-11T06:43:04.334Z,11.18
2017-04-11T06:44:02.756Z,11.55
2017-04-11T06:45:01.147Z,12.30
2017-04-11T06:46:00.899Z,11.57
2017-04-11T06:46:59.344Z,10.78
2017-04-11T06:47:57.744Z,10.95
2017-04-11T06:48:56.129Z,10.52
2017-04-11T06:49:54.557Z,11.15
2017-04-11T06:50:52.976Z,10.75
2017-04-11T06:51:51.351Z,10.17
2017-04-11T06:52:49.759Z,10.15
2017-04-11T06:53:48.177Z,10.05
2017-04-11T06:54:46.901Z,11.15
2017-04-11T06:55:45.980Z,11.08
2017-04-11T06:56:44.394Z,10.45
2017-04-11T06:58:24.315Z,11.05
2017-04-11T06:59:23.114Z,10.28
2017-04-11T07:00:21.482Z,11.48
2017-04-11T07:01:19.916Z,11.45
2017-04-11T07:02:18.336Z,10.87
2017-04-11T07:03:17.741Z,11.20
2017-04-11T07:04:16.122Z,9.87
2017-04-11T07:05:15.235Z,10.52
2017-04-11T07:06:14.086Z,11.75
2017-04-11T07:07:12.521Z,10.80
2017-04-11T07:08:10.916Z,11.18
2017-04-11T07:09:09.315Z,11.42
2017-04-11T07:10:08.142Z,11.70
2017-04-11T07:11:06.524Z,11.40
2017-04-11T07:12:04.937Z,10.88
2017-04-11T07:13:03.412Z,11.98
2017-04-11T07:14:01.801Z,11.73
2017-04-11T07:15:00.183Z,11.40
2017-04-11T07:15:58.652Z,10.67
2017-04-11T07:16:57.035Z,11.30
2017-04-11T07:17:55.484Z,10.27
2017-04-11T07:18:53.972Z,11.32
2017-04-11T07:19:52.387Z,11.92
2017-04-11T07:20:50.825Z,11.48
2017-04-11T07:21:49.244Z,11.62
2017-04-11T07:22:47.686Z,12.10
2017-04-11T07:23:46.400Z,11.70
2017-04-11T07:24:44.811Z,10.72
2017-04-11T07:25:43.249Z,10.90
2017-04-11T07:26:41.642Z,10.48
2017-04-11T07:27:40.048Z,10.48
2017-04-11T07:28:38.457Z,10.75
2017-04-11T07:29:36.949Z,10.22
2017-04-11T07:30:35.389Z,10.28
2017-04-11T07:31:33.815Z,9.77
2017-04-11T07:32:32.375Z,11.45
2017-04-11T07:33:30.782Z,11.08
2017-04-11T07:34:29.488Z,11.27
2017-04-11T07:35:27.937Z,9.73
2017-04-11T07:36:26.331Z,10.60
2017-04-11T07:37:25.507Z,10.47
2017-04-11T07:38:23.919Z,11.20
2017-04-11T07:39:22.329Z,11.35
2017-04-11T07:40:22.690Z,10.70
2017-04-11T07:41:21.127Z,11.58
2017-04-11T07:42:19.559Z,12.00
2017-04-11T07:43:19.947Z,10.28
2017-04-11T07:44:18.381Z,10.68
2017-04-11T07:45:16.768Z,11.65
2017-04-11T07:46:15.154Z,11.68
2017-04-11T07:47:13.587Z,12.52
2017-04-11T07:48:12.696Z,11.72
2017-04-11T07:49:11.102Z,11.57
2017-04-11T07:50:10.245Z,10.85
2017-04-11T07:51:08.650Z,11.52
2017-04-11T07:52:07.065Z,12.00
2017-04-11T07:53:05.471Z,11.55
2017-04-11T07:54:03.953Z,12.20
2017-04-11T07:55:02.339Z,13.35
2017-04-11T07:56:01.689Z,13.98
2017-04-11T07:57:00.145Z,12.70
2017-04-11T07:57:58.552Z,12.42
2017-04-11T07:58:56.990Z,13.00
2017-04-11T07:59:56.155Z,11.98
2017-04-11T08:00:54.541Z,11.95
2017-04-11T08:01:52.927Z,11.73
2017-04-11T08:02:51.690Z,10.98
2017-04-11T08:03:50.189Z,10.83
2017-04-11T08:04:48.591Z,11.77
2017-04-11T08:05:47.040Z,11.27
2017-04-11T08:06:45.510Z,10.90
2017-04-11T08:07:43.957Z,11.12
2017-04-11T08:08:43.166Z,10.40
2017-04-11T08:09:41.707Z,12.00
2017-04-11T08:10:40.225Z,10.38
2017-04-11T08:11:38.602Z,9.75
2017-04-11T08:12:37.015Z,11.48
2017-04-11T08:13:35.404Z,11.63
2017-04-11T08:14:33.863Z,12.30
2017-04-11T08:15:32.651Z,11.72
2017-04-11T08:16:31.067Z,11.15
2017-04-11T08:17:29.450Z,13.05
2017-04-11T08:18:28.125Z,10.03
2017-04-11T08:19:26.538Z,12.40
2017-04-11T08:20:25.369Z,11.90
2017-04-11T08:21:24.189Z,10.78
2017-04-11T08:22:22.616Z,11.13
2017-04-11T08:23:21.018Z,12.17
2017-04-11T08:24:20.222Z,11.07
2017-04-11T08:25:18.650Z,11.53
2017-04-11T08:26:17.073Z,11.15
2017-04-11T08:27:16.307Z,10.98
2017-04-11T08:28:14.762Z,11.58
2017-04-11T08:29:13.169Z,11.60
2017-04-11T08:30:11.554Z,11.68
2017-04-11T08:31:09.951Z,11.83
2017-04-11T08:32:09.183Z,12.10
2017-04-11T08:33:07.655Z,11.73
2017-04-11T08:34:06.064Z,11.80
2017-04-11T08:35:04.456Z,12.58
2017-04-11T08:36:02.886Z,11.47
2017-04-11T08:37:01.322Z,12.52
2017-04-11T08:37:59.697Z,11.15
2017-04-11T08:38:58.238Z,12.12
2017-04-11T08:39:56.979Z,11.32
2017-04-11T08:40:55.409Z,12.50
2017-04-11T08:41:53.828Z,12.52
2017-04-11T08:42:52.265Z,12.33
2017-04-11T08:43:52.909Z,12.25
2017-04-11T08:44:51.352Z,12.28
2017-04-11T08:45:49.776Z,13.18
2017-04-11T08:46:48.927Z,11.35
2017-04-11T08:47:47.935Z,11.72
2017-04-11T08:48:46.311Z,11.88
2017-04-11T08:49:45.438Z,13.07
2017-04-11T08:50:43.899Z,12.43
2017-04-11T08:51:42.336Z,11.82
2017-04-11T08:52:42.251Z,10.93
2017-04-11T08:53:41.419Z,12.50
2017-04-11T08:54:41.898Z,10.80
2017-04-11T08:55:40.944Z,12.57
2017-04-11T08:56:39.855Z,13.73
2017-04-11T08:57:38.905Z,14.40
2017-04-11T08:58:37.339Z,12.63
2017-04-11T08:59:36.606Z,13.73
2017-04-11T09:00:36.130Z,12.75
2017-04-11T09:01:34.620Z,11.70
2017-04-11T09:02:34.007Z,12.12
2017-04-11T09:03:32.406Z,13.73
2017-04-11T09:04:32.289Z,12.82
2017-04-11T09:05:31.478Z,11.33
2017-04-11T09:06:31.222Z,13.42
2017-04-11T09:07:29.625Z,13.60
2017-04-11T09:08:28.050Z,13.88
2017-04-11T09:09:26.432Z,14.98
2017-04-11T09:10:24.876Z,15.45
2017-04-11T09:11:23.396Z,14.73
2017-04-11T09:12:21.812Z,14.65
2017-04-11T09:13:20.616Z,14.88
2017-04-11T09:14:19.082Z,14.25
2017-04-11T09:15:17.480Z,15.85
2017-04-11T09:16:15.904Z,14.00
2017-04-11T09:17:14.346Z,13.05
2017-04-11T09:18:12.821Z,15.55
2017-04-11T09:19:12.018Z,13.75
2017-04-11T09:20:10.475Z,15.27
2017-04-11T09:21:08.879Z,15.82
2017-04-11T09:22:07.273Z,14.85
2017-04-11T09:23:06.469Z,14.80
2017-04-11T09:24:04.861Z,15.30
2017-04-11T09:25:04.329Z,14.20
2017-04-11T09:26:02.762Z,14.15
2017-04-11T09:27:01.159Z,15.90
2017-04-11T09:27:59.557Z,14.98
2017-04-11T09:28:57.950Z,13.32
2017-04-11T09:29:56.368Z,14.40
2017-04-11T09:30:54.788Z,15.33
2017-04-11T09:31:54.842Z,13.70
2017-04-11T09:32:55.059Z,15.33
2017-04-11T09:33:53.490Z,14.93
2017-04-11T09:34:51.942Z,12.62
2017-04-11T09:35:50.416Z,13.82
2017-04-11T09:36:49.926Z,11.87
2017-04-11T09:37:48.323Z,12.58
2017-04-11T09:38:47.102Z,12.65
2017-04-11T09:39:45.528Z,12.37
2017-04-11T09:40:45.448Z,11.98
2017-04-11T09:41:43.871Z,12.27
2017-04-11T09:42:42.281Z,12.87
2017-04-11T09:43:40.989Z,12.42
2017-04-11T09:44:39.372Z,11.80
2017-04-11T09:45:39.011Z,12.02
2017-04-11T09:46:38.113Z,13.20
2017-04-11T09:47:36.529Z,11.87
2017-04-11T09:48:34.956Z,13.70
2017-04-11T09:49:34.138Z,13.07
2017-04-11T09:50:32.548Z,12.75
2017-04-11T09:51:31.030Z,13.57
2017-04-11T09:52:30.007Z,14.22
2017-04-11T09:53:28.385Z,13.67
2017-04-11T09:54:26.819Z,11.97
2017-04-11T09:55:25.314Z,11.97
2017-04-11T09:56:23.718Z,13.42
2017-04-11T09:57:22.218Z,13.70
2017-04-11T09:58:20.658Z,12.57
2017-04-11T09:59:19.102Z,12.55
2017-04-11T10:00:17.812Z,13.80
2017-04-11T10:01:16.964Z,14.47
2017-04-11T10:02:15.422Z,14.02
2017-04-11T10:03:13.947Z,13.60
2017-04-11T10:04:13.450Z,13.12
2017-04-11T10:05:11.922Z,14.42
2017-04-11T10:06:10.351Z,13.58
2017-04-11T10:07:08.782Z,14.50
2017-04-11T10:08:07.247Z,13.32
2017-04-11T10:09:06.537Z,13.55
2017-04-11T10:10:04.980Z,13.73
2017-04-11T10:11:05.161Z,13.58
2017-04-11T10:12:03.627Z,14.17
2017-04-11T10:13:02.354Z,13.50
2017-04-11T10:14:00.768Z,14.10
2017-04-11T10:14:59.652Z,13.07
2017-04-11T10:15:58.148Z,14.10
2017-04-11T10:16:56.602Z,14.27
2017-04-11T10:17:55.072Z,13.00
2017-04-11T10:18:53.567Z,14.43
2017-04-11T10:19:52.802Z,13.78
2017-04-11T10:20:51.319Z,15.15
2017-04-11T10:21:49.725Z,14.15
2017-04-11T10:22:48.162Z,14.15
2017-04-11T10:23:47.348Z,15.00
2017-04-11T10:24:45.776Z,13.82
2017-04-11T10:25:44.246Z,14.38
2017-04-11T10:26:42.804Z,15.37
2017-04-11T10:27:41.571Z,14.53
2017-04-11T10:28:39.997Z,14.83
2017-04-11T10:29:38.408Z,13.18
2017-04-11T10:30:36.857Z,13.57
2017-04-11T10:31:36.003Z,12.48
2017-04-11T10:32:35.267Z,13.50
2017-04-11T10:33:33.673Z,12.95
2017-04-11T10:34:32.097Z,14.22
2017-04-11T10:35:30.535Z,12.70
2017-04-11T10:36:30.115Z,11.45
2017-04-11T10:37:28.538Z,12.12
2017-04-11T10:38:26.975Z,12.35
2017-04-11T10:39:25.655Z,14.18
2017-04-11T10:40:24.820Z,12.30
2017-04-11T10:41:23.256Z,11.67
2017-04-11T10:42:21.667Z,11.67
2017-04-11T10:43:20.127Z,13.27
2017-04-11T10:44:18.565Z,13.18
2017-04-11T10:45:16.992Z,12.43
2017-04-11T10:46:16.158Z,12.78
2017-04-11T10:47:14.580Z,11.72
2017-04-11T10:48:13.008Z,11.57
2017-04-11T10:49:12.204Z,12.43
2017-04-11T10:50:10.582Z,11.78
2017-04-11T10:51:09.762Z,11.60
2017-04-11T10:52:08.949Z,12.22
2017-04-11T10:53:08.476Z,11.63
2017-04-11T10:54:06.893Z,11.50
2017-04-11T10:55:05.351Z,10.88
2017-04-11T10:56:03.894Z,12.08
2017-04-11T10:57:02.352Z,10.60
2017-04-11T10:58:01.075Z,10.90
2017-04-11T10:58:59.489Z,10.95
2017-04-11T10:59:57.922Z,10.10
2017-04-11T11:00:56.338Z,10.78
2017-04-11T11:01:54.751Z,11.22
2017-04-11T11:02:53.188Z,10.45
2017-04-11T11:03:51.624Z,11.08
2017-04-11T11:04:51.710Z,10.52
2017-04-11T11:05:50.131Z,11.07
2017-04-11T11:06:48.638Z,10.57
2017-04-11T11:07:47.463Z,9.80
2017-04-11T11:08:45.889Z,10.13
2017-04-11T11:09:44.300Z,11.30
2017-04-11T11:10:42.822Z,10.25
2017-04-11T11:11:41.228Z,12.23
2017-04-11T11:12:40.391Z,11.93
2017-04-11T11:13:38.798Z,11.82
2017-04-11T11:14:36.470Z,11.35
2017-04-11T11:15:34.857Z,12.35
2017-04-11T11:16:33.309Z,13.15
2017-04-11T11:17:32.043Z,12.45
2017-04-11T11:18:30.482Z,11.45
2017-04-11T11:19:28.908Z,11.80
2017-04-11T11:20:27.529Z,12.02
2017-04-11T11:21:26.007Z,11.62
2017-04-11T11:22:24.502Z,11.22
2017-04-11T11:23:22.921Z,10.23
2017-04-11T11:24:21.328Z,12.63
2017-04-11T11:25:19.817Z,12.90
2017-04-11T11:26:18.202Z,13.57
2017-04-11T11:27:16.648Z,13.92
2017-04-11T11:28:15.115Z,13.63
2017-04-11T11:29:13.864Z,12.30
2017-04-11T11:30:12.263Z,11.85
2017-04-11T11:31:10.664Z,12.80
2017-04-11T11:32:09.054Z,12.12
2017-04-11T11:33:07.495Z,11.43
2017-04-11T11:34:05.956Z,12.30
2017-04-11T11:35:05.209Z,11.80
2017-04-11T11:36:03.612Z,10.75
2017-04-11T11:37:02.311Z,9.85
2017-04-11T11:38:00.764Z,11.42
2017-04-11T11:38:59.206Z,12.27
2017-04-11T11:39:57.652Z,12.15
2017-04-11T11:40:56.070Z,11.83
2017-04-11T11:41:54.476Z,10.82
2017-04-11T11:42:52.856Z,11.22
2017-04-11T11:43:51.252Z,11.77
2017-04-11T11:44:50.368Z,11.32
2017-04-11T11:45:48.770Z,11.00
2017-04-11T11:46:47.945Z,11.03
2017-04-11T11:47:46.469Z,11.33
2017-04-11T11:48:44.948Z,12.03
2017-04-11T11:49:44.148Z,11.38
2017-04-11T11:50:42.588Z,12.23
2017-04-11T11:51:40.982Z,11.15
2017-04-11T11:52:40.751Z,11.45
2017-04-11T11:53:39.222Z,11.33
2017-04-11T11:54:37.655Z,10.17
2017-04-11T11:55:36.671Z,10.78
2017-04-11T11:56:35.469Z,10.70
2017-04-11T11:57:33.892Z,9.82
2017-04-11T11:58:32.956Z,8.77
2017-04-11T11:59:32.400Z,11.05
2017-04-11T12:00:30.859Z,9.80
2017-04-11T12:01:29.262Z,9.60
2017-04-11T12:02:27.801Z,8.90
2017-04-11T12:03:26.275Z,9.58
2017-04-11T12:04:24.666Z,9.73
2017-04-11T12:05:23.081Z,9.93
2017-04-11T12:06:21.518Z,9.67
2017-04-11T12:07:19.929Z,9.95
2017-04-11T12:08:18.352Z,8.97
2017-04-11T12:09:16.766Z,9.70
2017-04-11T12:10:15.167Z,8.55
2017-04-11T12:11:13.884Z,8.95
2017-04-11T12:12:13.064Z,8.38
2017-04-11T12:13:11.459Z,8.45
2017-04-11T12:14:09.955Z,9.68
2017-04-11T12:15:08.347Z,9.42
2017-04-11T12:16:06.768Z,9.20
2017-04-11T12:17:05.189Z,8.22
2017-04-11T12:18:03.675Z,9.47
2017-04-11T12:19:02.033Z,8.75
2017-04-11T12:20:00.525Z,9.65
2017-04-11T12:20:58.940Z,9.13
2017-04-11T12:21:57.388Z,9.60
2017-04-11T12:22:55.859Z,9.03
2017-04-11T12:23:54.272Z,9.75
2017-04-11T12:24:52.649Z,9.10
2017-04-11T12:25:51.149Z,10.35
2017-04-11T12:26:50.097Z,8.87
2017-04-11T12:27:48.491Z,10.05
2017-04-11T12:28:47.659Z,10.07
2017-04-11T12:29:46.057Z,9.12
2017-04-11T12:30:45.250Z,9.53
2017-04-11T12:31:43.733Z,9.73
2017-04-11T12:32:42.145Z,10.95
2017-04-11T12:33:40.552Z,10.02
2017-04-11T12:34:41.960Z,10.40
2017-04-11T12:35:40.372Z,9.93
2017-04-11T12:36:38.788Z,10.17
2017-04-11T12:37:37.195Z,9.33
2017-04-11T12:38:35.602Z,9.20